sensor_id;sensor_type;location;lat;lon;timestamp;temperature;humidity
55828;DHT22;41758;51.992;5.890;2023-01-31T00:02:10;8.80;64.30
55828;DHT22;41758;51.992;5.890;2023-01-31T00:04:35;8.80;64.20
55828;DHT22;41758;51.992;5.890;2023-01-31T00:07:01;8.80;64.60
55828;DHT22;41758;51.992;5.890;2023-01-31T00:09:27;8.80;64.60
55828;DHT22;41758;51.992;5.890;2023-01-31T00:11:52;8.80;64.30
55828;DHT22;41758;51.992;5.890;2023-01-31T00:14:19;8.80;64.20
55828;DHT22;41758;51.992;5.890;2023-01-31T00:16:45;8.80;63.70
55828;DHT22;41758;51.992;5.890;2023-01-31T00:19:11;8.80;64.30
55828;DHT22;41758;51.992;5.890;2023-01-31T00:21:36;8.80;64.30
55828;DHT22;41758;51.992;5.890;2023-01-31T00:24:05;8.80;64.20
55828;DHT22;41758;51.992;5.890;2023-01-31T00:26:33;8.80;64.30
55828;DHT22;41758;51.992;5.890;2023-01-31T00:29:00;8.80;64.50
55828;DHT22;41758;51.992;5.890;2023-01-31T00:31:27;8.80;64.40
55828;DHT22;41758;51.992;5.890;2023-01-31T00:33:54;8.80;63.90
55828;DHT22;41758;51.992;5.890;2023-01-31T00:36:23;8.70;63.50
55828;DHT22;41758;51.992;5.890;2023-01-31T00:38:52;8.70;63.90
55828;DHT22;41758;51.992;5.890;2023-01-31T00:41:19;8.70;64.00
55828;DHT22;41758;51.992;5.890;2023-01-31T00:43:45;8.70;64.20
55828;DHT22;41758;51.992;5.890;2023-01-31T00:46:10;8.70;64.10
55828;DHT22;41758;51.992;5.890;2023-01-31T00:48:37;8.70;64.00
55828;DHT22;41758;51.992;5.890;2023-01-31T00:51:02;8.70;64.40
55828;DHT22;41758;51.992;5.890;2023-01-31T00:53:28;8.70;64.10
55828;DHT22;41758;51.992;5.890;2023-01-31T00:56:01;8.70;64.40
55828;DHT22;41758;51.992;5.890;2023-01-31T00:58:37;8.60;64.40
55828;DHT22;41758;51.992;5.890;2023-01-31T01:01:30;8.70;63.70
55828;DHT22;41758;51.992;5.890;2023-01-31T01:04:05;8.60;63.90
55828;DHT22;41758;51.992;5.890;2023-01-31T01:06:39;8.50;64.30
55828;DHT22;41758;51.992;5.890;2023-01-31T01:09:10;8.50;64.80
55828;DHT22;41758;51.992;5.890;2023-01-31T01:11:36;8.50;64.40
55828;DHT22;41758;51.992;5.890;2023-01-31T01:14:02;8.50;63.80
55828;DHT22;41758;51.992;5.890;2023-01-31T01:16:36;8.40;64.50
55828;DHT22;41758;51.992;5.890;2023-01-31T01:19:05;8.40;65.10
55828;DHT22;41758;51.992;5.890;2023-01-31T01:21:32;8.40;64.30
55828;DHT22;41758;51.992;5.890;2023-01-31T01:24:04;8.40;64.30
55828;DHT22;41758;51.992;5.890;2023-01-31T01:26:31;8.40;64.20
55828;DHT22;41758;51.992;5.890;2023-01-31T01:28:59;8.40;64.60
55828;DHT22;41758;51.992;5.890;2023-01-31T01:31:26;8.40;64.10
55828;DHT22;41758;51.992;5.890;2023-01-31T01:34:03;8.30;64.10
55828;DHT22;41758;51.992;5.890;2023-01-31T01:36:32;8.30;64.00
55828;DHT22;41758;51.992;5.890;2023-01-31T01:39:05;8.30;64.10
55828;DHT22;41758;51.992;5.890;2023-01-31T01:41:34;8.30;64.50
55828;DHT22;41758;51.992;5.890;2023-01-31T01:44:40;8.30;64.20
55828;DHT22;41758;51.992;5.890;2023-01-31T01:46:50;8.20;64.80
55828;DHT22;41758;51.992;5.890;2023-01-31T01:49:30;8.20;64.50
55828;DHT22;41758;51.992;5.890;2023-01-31T01:51:59;8.20;64.20
55828;DHT22;41758;51.992;5.890;2023-01-31T02:00:49;8.10;65.50
55828;DHT22;41758;51.992;5.890;2023-01-31T02:03:17;8.00;64.80
55828;DHT22;41758;51.992;5.890;2023-01-31T02:05:54;8.00;65.10
55828;DHT22;41758;51.992;5.890;2023-01-31T02:08:22;8.00;64.30
55828;DHT22;41758;51.992;5.890;2023-01-31T02:13:33;8.00;64.80
55828;DHT22;41758;51.992;5.890;2023-01-31T02:15:58;7.90;64.40
55828;DHT22;41758;51.992;5.890;2023-01-31T02:18:25;7.90;64.10
55828;DHT22;41758;51.992;5.890;2023-01-31T02:35:16;7.90;65.60
55828;DHT22;41758;51.992;5.890;2023-01-31T02:41:13;8.00;66.00
55828;DHT22;41758;51.992;5.890;2023-01-31T02:43:53;8.00;65.80
55828;DHT22;41758;51.992;5.890;2023-01-31T02:50:10;8.10;65.70
55828;DHT22;41758;51.992;5.890;2023-01-31T02:55:51;8.20;65.50
55828;DHT22;41758;51.992;5.890;2023-01-31T02:58:39;8.30;65.50
55828;DHT22;41758;51.992;5.890;2023-01-31T03:01:08;8.30;65.40
55828;DHT22;41758;51.992;5.890;2023-01-31T03:03:58;8.30;65.40
55828;DHT22;41758;51.992;5.890;2023-01-31T03:09:00;8.30;65.40
55828;DHT22;41758;51.992;5.890;2023-01-31T03:11:49;8.30;65.20
55828;DHT22;41758;51.992;5.890;2023-01-31T03:17:35;8.30;65.10
55828;DHT22;41758;51.992;5.890;2023-01-31T03:20:15;8.30;65.20
55828;DHT22;41758;51.992;5.890;2023-01-31T03:22:55;8.40;65.20
55828;DHT22;41758;51.992;5.890;2023-01-31T03:25:23;8.30;65.10
55828;DHT22;41758;51.992;5.890;2023-01-31T03:27:56;8.40;65.60
55828;DHT22;41758;51.992;5.890;2023-01-31T03:30:36;8.40;65.50
55828;DHT22;41758;51.992;5.890;2023-01-31T03:33:16;8.40;65.50
55828;DHT22;41758;51.992;5.890;2023-01-31T03:42:01;8.40;65.80
55828;DHT22;41758;51.992;5.890;2023-01-31T03:45:08;8.50;65.60
55828;DHT22;41758;51.992;5.890;2023-01-31T03:47:44;8.50;65.60
55828;DHT22;41758;51.992;5.890;2023-01-31T03:50:13;8.50;65.60
55828;DHT22;41758;51.992;5.890;2023-01-31T03:52:49;8.50;66.00
55828;DHT22;41758;51.992;5.890;2023-01-31T03:55:24;8.50;66.00
55828;DHT22;41758;51.992;5.890;2023-01-31T03:57:54;8.60;65.90
55828;DHT22;41758;51.992;5.890;2023-01-31T04:00:22;8.60;65.80
55828;DHT22;41758;51.992;5.890;2023-01-31T04:03:00;8.60;65.90
55828;DHT22;41758;51.992;5.890;2023-01-31T04:05:31;8.60;66.10
55828;DHT22;41758;51.992;5.890;2023-01-31T04:07:58;8.60;66.00
55828;DHT22;41758;51.992;5.890;2023-01-31T04:10:25;8.70;66.20
55828;DHT22;41758;51.992;5.890;2023-01-31T04:12:51;8.70;66.40
55828;DHT22;41758;51.992;5.890;2023-01-31T04:15:17;8.70;66.40
55828;DHT22;41758;51.992;5.890;2023-01-31T04:17:43;8.80;66.30
55828;DHT22;41758;51.992;5.890;2023-01-31T04:20:10;8.80;66.30
55828;DHT22;41758;51.992;5.890;2023-01-31T04:22:39;8.80;66.30
55828;DHT22;41758;51.992;5.890;2023-01-31T04:25:09;8.80;66.40
55828;DHT22;41758;51.992;5.890;2023-01-31T04:27:34;8.80;66.40
55828;DHT22;41758;51.992;5.890;2023-01-31T04:30:02;8.80;66.20
55828;DHT22;41758;51.992;5.890;2023-01-31T04:32:31;8.80;66.40
55828;DHT22;41758;51.992;5.890;2023-01-31T04:34:57;8.80;66.30
55828;DHT22;41758;51.992;5.890;2023-01-31T04:37:23;8.80;66.40
55828;DHT22;41758;51.992;5.890;2023-01-31T04:39:48;8.80;66.40
55828;DHT22;41758;51.992;5.890;2023-01-31T04:42:14;8.80;66.20
55828;DHT22;41758;51.992;5.890;2023-01-31T04:44:40;8.80;66.30
55828;DHT22;41758;51.992;5.890;2023-01-31T04:47:06;8.80;66.50
55828;DHT22;41758;51.992;5.890;2023-01-31T04:49:34;8.80;66.50
55828;DHT22;41758;51.992;5.890;2023-01-31T04:52:00;8.80;66.60
55828;DHT22;41758;51.992;5.890;2023-01-31T04:54:31;8.80;66.40
55828;DHT22;41758;51.992;5.890;2023-01-31T04:56:57;8.90;66.70
55828;DHT22;41758;51.992;5.890;2023-01-31T04:59:23;8.90;66.70
55828;DHT22;41758;51.992;5.890;2023-01-31T05:01:49;8.90;66.50
55828;DHT22;41758;51.992;5.890;2023-01-31T05:04:15;8.90;66.70
55828;DHT22;41758;51.992;5.890;2023-01-31T05:06:43;8.90;66.80
55828;DHT22;41758;51.992;5.890;2023-01-31T05:09:09;8.90;66.80
55828;DHT22;41758;51.992;5.890;2023-01-31T05:11:37;9.00;66.70
55828;DHT22;41758;51.992;5.890;2023-01-31T05:14:03;8.90;66.90
55828;DHT22;41758;51.992;5.890;2023-01-31T05:16:29;9.00;66.90
55828;DHT22;41758;51.992;5.890;2023-01-31T05:18:55;9.00;67.00
55828;DHT22;41758;51.992;5.890;2023-01-31T05:21:21;9.00;66.70
55828;DHT22;41758;51.992;5.890;2023-01-31T05:23:47;9.00;66.70
55828;DHT22;41758;51.992;5.890;2023-01-31T05:26:12;9.00;66.70
55828;DHT22;41758;51.992;5.890;2023-01-31T05:28:38;9.00;66.70
55828;DHT22;41758;51.992;5.890;2023-01-31T05:31:06;9.00;66.90
55828;DHT22;41758;51.992;5.890;2023-01-31T05:33:37;9.10;66.80
55828;DHT22;41758;51.992;5.890;2023-01-31T05:36:06;9.10;66.80
55828;DHT22;41758;51.992;5.890;2023-01-31T05:38:32;9.10;66.80
55828;DHT22;41758;51.992;5.890;2023-01-31T05:40:58;9.10;66.60
55828;DHT22;41758;51.992;5.890;2023-01-31T05:43:27;9.10;66.70
55828;DHT22;41758;51.992;5.890;2023-01-31T05:46:09;9.10;66.60
55828;DHT22;41758;51.992;5.890;2023-01-31T05:48:50;9.10;66.70
55828;DHT22;41758;51.992;5.890;2023-01-31T05:51:16;9.10;66.70
55828;DHT22;41758;51.992;5.890;2023-01-31T05:53:42;9.10;66.70
55828;DHT22;41758;51.992;5.890;2023-01-31T05:56:13;9.10;66.90
55828;DHT22;41758;51.992;5.890;2023-01-31T05:58:41;9.10;66.90
55828;DHT22;41758;51.992;5.890;2023-01-31T06:01:25;9.10;67.00
55828;DHT22;41758;51.992;5.890;2023-01-31T06:03:59;9.10;67.00
55828;DHT22;41758;51.992;5.890;2023-01-31T06:06:25;9.10;67.10
55828;DHT22;41758;51.992;5.890;2023-01-31T06:09:00;9.10;67.10
55828;DHT22;41758;51.992;5.890;2023-01-31T06:11:28;9.10;67.20
55828;DHT22;41758;51.992;5.890;2023-01-31T06:13:55;9.10;67.40
55828;DHT22;41758;51.992;5.890;2023-01-31T06:16:24;9.10;67.50
55828;DHT22;41758;51.992;5.890;2023-01-31T06:18:59;9.20;67.30
55828;DHT22;41758;51.992;5.890;2023-01-31T06:21:28;9.20;67.40
55828;DHT22;41758;51.992;5.890;2023-01-31T06:23:54;9.20;67.40
55828;DHT22;41758;51.992;5.890;2023-01-31T06:26:20;9.20;67.50
55828;DHT22;41758;51.992;5.890;2023-01-31T06:28:55;9.20;67.40
55828;DHT22;41758;51.992;5.890;2023-01-31T06:31:44;9.30;67.30
55828;DHT22;41758;51.992;5.890;2023-01-31T06:34:10;9.30;67.30
55828;DHT22;41758;51.992;5.890;2023-01-31T06:36:52;9.30;67.10
55828;DHT22;41758;51.992;5.890;2023-01-31T06:40:10;9.30;67.30
55828;DHT22;41758;51.992;5.890;2023-01-31T06:45:58;9.20;67.40
55828;DHT22;41758;51.992;5.890;2023-01-31T06:48:50;9.30;67.40
55828;DHT22;41758;51.992;5.890;2023-01-31T06:54:09;9.20;67.40
55828;DHT22;41758;51.992;5.890;2023-01-31T06:56:35;9.20;67.30
55828;DHT22;41758;51.992;5.890;2023-01-31T06:59:01;9.30;67.50
55828;DHT22;41758;51.992;5.890;2023-01-31T07:01:34;9.30;67.60
55828;DHT22;41758;51.992;5.890;2023-01-31T07:04:02;9.30;67.50
55828;DHT22;41758;51.992;5.890;2023-01-31T07:06:30;9.30;67.30
55828;DHT22;41758;51.992;5.890;2023-01-31T07:08:59;9.30;67.30
55828;DHT22;41758;51.992;5.890;2023-01-31T07:11:25;9.30;67.40
55828;DHT22;41758;51.992;5.890;2023-01-31T07:13:51;9.40;67.30
55828;DHT22;41758;51.992;5.890;2023-01-31T07:16:28;9.40;67.30
55828;DHT22;41758;51.992;5.890;2023-01-31T07:18:59;9.40;67.40
55828;DHT22;41758;51.992;5.890;2023-01-31T07:21:28;9.40;67.30
55828;DHT22;41758;51.992;5.890;2023-01-31T07:23:54;9.40;67.30
55828;DHT22;41758;51.992;5.890;2023-01-31T07:26:20;9.40;67.10
55828;DHT22;41758;51.992;5.890;2023-01-31T07:28:45;9.50;67.10
55828;DHT22;41758;51.992;5.890;2023-01-31T07:31:12;9.50;67.10
55828;DHT22;41758;51.992;5.890;2023-01-31T07:33:39;9.50;67.00
55828;DHT22;41758;51.992;5.890;2023-01-31T07:36:06;9.50;67.00
55828;DHT22;41758;51.992;5.890;2023-01-31T07:38:33;9.60;66.80
55828;DHT22;41758;51.992;5.890;2023-01-31T07:41:03;9.60;66.80
55828;DHT22;41758;51.992;5.890;2023-01-31T07:43:32;9.60;66.80
55828;DHT22;41758;51.992;5.890;2023-01-31T07:45:59;9.60;66.70
55828;DHT22;41758;51.992;5.890;2023-01-31T07:48:24;9.60;66.70
55828;DHT22;41758;51.992;5.890;2023-01-31T07:50:52;9.60;66.60
55828;DHT22;41758;51.992;5.890;2023-01-31T07:53:22;9.60;66.60
55828;DHT22;41758;51.992;5.890;2023-01-31T07:55:48;9.60;66.40
55828;DHT22;41758;51.992;5.890;2023-01-31T07:58:14;9.60;66.40
55828;DHT22;41758;51.992;5.890;2023-01-31T08:00:43;9.60;66.50
55828;DHT22;41758;51.992;5.890;2023-01-31T08:03:29;9.60;66.50
55828;DHT22;41758;51.992;5.890;2023-01-31T08:06:11;9.50;66.60
55828;DHT22;41758;51.992;5.890;2023-01-31T08:08:42;9.60;66.60
55828;DHT22;41758;51.992;5.890;2023-01-31T08:11:15;9.60;66.50
55828;DHT22;41758;51.992;5.890;2023-01-31T08:13:41;9.60;66.40
55828;DHT22;41758;51.992;5.890;2023-01-31T08:16:13;9.60;66.40
55828;DHT22;41758;51.992;5.890;2023-01-31T08:18:39;9.70;66.20
55828;DHT22;41758;51.992;5.890;2023-01-31T08:21:12;9.70;66.00
55828;DHT22;41758;51.992;5.890;2023-01-31T08:23:44;9.60;65.90
55828;DHT22;41758;51.992;5.890;2023-01-31T08:26:20;9.60;65.90
55828;DHT22;41758;51.992;5.890;2023-01-31T08:32:07;9.60;66.00
55828;DHT22;41758;51.992;5.890;2023-01-31T08:35:06;9.70;66.00
55828;DHT22;41758;51.992;5.890;2023-01-31T08:37:33;9.70;65.90
55828;DHT22;41758;51.992;5.890;2023-01-31T08:39:59;9.70;65.80
55828;DHT22;41758;51.992;5.890;2023-01-31T08:42:25;9.70;65.70
55828;DHT22;41758;51.992;5.890;2023-01-31T08:44:51;9.70;65.80
55828;DHT22;41758;51.992;5.890;2023-01-31T08:47:17;9.70;65.60
55828;DHT22;41758;51.992;5.890;2023-01-31T08:49:51;9.80;65.70
55828;DHT22;41758;51.992;5.890;2023-01-31T08:52:24;9.80;65.60
55828;DHT22;41758;51.992;5.890;2023-01-31T08:55:09;9.80;65.80
55828;DHT22;41758;51.992;5.890;2023-01-31T08:57:48;9.80;65.60
55828;DHT22;41758;51.992;5.890;2023-01-31T09:00:21;9.80;65.70
55828;DHT22;41758;51.992;5.890;2023-01-31T09:02:56;9.80;65.60
55828;DHT22;41758;51.992;5.890;2023-01-31T09:05:42;9.80;65.60
55828;DHT22;41758;51.992;5.890;2023-01-31T09:08:13;9.90;65.40
55828;DHT22;41758;51.992;5.890;2023-01-31T09:10:39;9.90;65.50
55828;DHT22;41758;51.992;5.890;2023-01-31T09:13:08;9.90;65.50
55828;DHT22;41758;51.992;5.890;2023-01-31T09:15:40;9.90;65.40
55828;DHT22;41758;51.992;5.890;2023-01-31T09:18:06;9.90;65.50
55828;DHT22;41758;51.992;5.890;2023-01-31T09:23:59;9.90;65.60
55828;DHT22;41758;51.992;5.890;2023-01-31T09:26:37;9.90;65.50
55828;DHT22;41758;51.992;5.890;2023-01-31T09:29:03;9.90;65.40
55828;DHT22;41758;51.992;5.890;2023-01-31T09:31:32;9.90;65.50
55828;DHT22;41758;51.992;5.890;2023-01-31T09:34:00;9.90;65.40
55828;DHT22;41758;51.992;5.890;2023-01-31T09:36:26;9.90;65.50
55828;DHT22;41758;51.992;5.890;2023-01-31T09:38:58;9.90;65.60
55828;DHT22;41758;51.992;5.890;2023-01-31T09:41:43;10.00;65.40
55828;DHT22;41758;51.992;5.890;2023-01-31T09:44:41;10.00;65.50
55828;DHT22;41758;51.992;5.890;2023-01-31T09:47:53;10.00;65.40
55828;DHT22;41758;51.992;5.890;2023-01-31T09:53:35;10.10;65.50
55828;DHT22;41758;51.992;5.890;2023-01-31T10:06:19;10.10;65.50
55828;DHT22;41758;51.992;5.890;2023-01-31T10:09:22;10.10;65.60
55828;DHT22;41758;51.992;5.890;2023-01-31T10:12:18;10.20;65.50
55828;DHT22;41758;51.992;5.890;2023-01-31T10:14:51;10.20;65.60
55828;DHT22;41758;51.992;5.890;2023-01-31T10:17:39;10.20;65.80
55828;DHT22;41758;51.992;5.890;2023-01-31T10:26:04;10.30;66.00
55828;DHT22;41758;51.992;5.890;2023-01-31T10:31:55;10.40;65.90
55828;DHT22;41758;51.992;5.890;2023-01-31T10:34:31;10.40;65.90
55828;DHT22;41758;51.992;5.890;2023-01-31T10:40:38;10.50;65.80
55828;DHT22;41758;51.992;5.890;2023-01-31T10:43:32;10.50;65.80
55828;DHT22;41758;51.992;5.890;2023-01-31T10:46:13;10.60;65.90
55828;DHT22;41758;51.992;5.890;2023-01-31T10:48:42;10.60;65.80
55828;DHT22;41758;51.992;5.890;2023-01-31T10:58:37;10.70;65.70
55828;DHT22;41758;51.992;5.890;2023-01-31T11:01:09;10.80;65.70
55828;DHT22;41758;51.992;5.890;2023-01-31T11:03:49;10.80;65.80
55828;DHT22;41758;51.992;5.890;2023-01-31T11:06:21;10.80;65.60
55828;DHT22;41758;51.992;5.890;2023-01-31T11:09:08;10.80;65.60
55828;DHT22;41758;51.992;5.890;2023-01-31T11:11:56;10.90;65.70
55828;DHT22;41758;51.992;5.890;2023-01-31T11:14:37;11.00;65.60
55828;DHT22;41758;51.992;5.890;2023-01-31T11:17:23;11.00;65.60
55828;DHT22;41758;51.992;5.890;2023-01-31T11:19:57;11.10;65.40
55828;DHT22;41758;51.992;5.890;2023-01-31T11:22:32;11.10;65.40
55828;DHT22;41758;51.992;5.890;2023-01-31T11:25:02;11.10;65.40
55828;DHT22;41758;51.992;5.890;2023-01-31T11:27:39;11.10;65.50
55828;DHT22;41758;51.992;5.890;2023-01-31T11:31:18;11.10;65.50
55828;DHT22;41758;51.992;5.890;2023-01-31T11:36:07;11.10;65.60
55828;DHT22;41758;51.992;5.890;2023-01-31T11:38:33;11.10;65.70
55828;DHT22;41758;51.992;5.890;2023-01-31T11:40:59;11.10;65.70
55828;DHT22;41758;51.992;5.890;2023-01-31T11:43:29;11.20;65.70
55828;DHT22;41758;51.992;5.890;2023-01-31T11:46:00;11.10;65.80
55828;DHT22;41758;51.992;5.890;2023-01-31T11:48:35;11.20;65.90
55828;DHT22;41758;51.992;5.890;2023-01-31T11:51:04;11.20;65.80
55828;DHT22;41758;51.992;5.890;2023-01-31T11:57:34;11.20;66.20
55828;DHT22;41758;51.992;5.890;2023-01-31T12:00:03;11.20;66.40
55828;DHT22;41758;51.992;5.890;2023-01-31T12:05:04;11.20;66.80
55828;DHT22;41758;51.992;5.890;2023-01-31T12:07:50;11.20;67.00
55828;DHT22;41758;51.992;5.890;2023-01-31T12:10:34;11.10;67.20
55828;DHT22;41758;51.992;5.890;2023-01-31T12:13:23;11.20;67.60
55828;DHT22;41758;51.992;5.890;2023-01-31T12:16:19;11.10;67.90
55828;DHT22;41758;51.992;5.890;2023-01-31T12:22:21;11.10;68.40
55828;DHT22;41758;51.992;5.890;2023-01-31T12:25:15;11.10;68.70
55828;DHT22;41758;51.992;5.890;2023-01-31T12:27:58;11.00;69.00
55828;DHT22;41758;51.992;5.890;2023-01-31T12:34:01;11.00;69.40
55828;DHT22;41758;51.992;5.890;2023-01-31T12:50:40;11.10;69.80
55828;DHT22;41758;51.992;5.890;2023-01-31T13:05:53;11.10;70.30
55828;DHT22;41758;51.992;5.890;2023-01-31T13:11:31;11.20;70.20
55828;DHT22;41758;51.992;5.890;2023-01-31T13:14:08;11.20;70.30
55828;DHT22;41758;51.992;5.890;2023-01-31T13:38:14;11.30;70.70
55828;DHT22;41758;51.992;5.890;2023-01-31T13:41:01;11.30;70.90
55828;DHT22;41758;51.992;5.890;2023-01-31T13:46:58;11.40;70.70
55828;DHT22;41758;51.992;5.890;2023-01-31T13:53:16;11.40;70.80
55828;DHT22;41758;51.992;5.890;2023-01-31T13:56:35;11.40;70.70
55828;DHT22;41758;51.992;5.890;2023-01-31T14:03:30;11.50;70.80
55828;DHT22;41758;51.992;5.890;2023-01-31T14:44:45;11.70;70.90
55828;DHT22;41758;51.992;5.890;2023-01-31T14:58:41;11.70;70.50
55828;DHT22;41758;51.992;5.890;2023-01-31T15:01:42;11.80;70.50
55828;DHT22;41758;51.992;5.890;2023-01-31T15:04:49;11.80;70.50
55828;DHT22;41758;51.992;5.890;2023-01-31T15:11:12;11.90;70.10
55828;DHT22;41758;51.992;5.890;2023-01-31T15:14:34;11.90;70.10
55828;DHT22;41758;51.992;5.890;2023-01-31T15:56:26;11.70;68.20
55828;DHT22;41758;51.992;5.890;2023-01-31T15:58:54;11.70;68.10
55828;DHT22;41758;51.992;5.890;2023-01-31T16:01:21;11.70;67.90
55828;DHT22;41758;51.992;5.890;2023-01-31T16:03:51;11.80;67.70
55828;DHT22;41758;51.992;5.890;2023-01-31T16:06:25;11.80;67.40
55828;DHT22;41758;51.992;5.890;2023-01-31T16:08:58;11.80;67.30
55828;DHT22;41758;51.992;5.890;2023-01-31T16:11:25;11.80;67.20
55828;DHT22;41758;51.992;5.890;2023-01-31T16:13:53;11.80;67.20
55828;DHT22;41758;51.992;5.890;2023-01-31T16:16:20;11.80;67.00
55828;DHT22;41758;51.992;5.890;2023-01-31T16:18:54;11.80;66.40
55828;DHT22;41758;51.992;5.890;2023-01-31T16:27:08;11.80;66.10
55828;DHT22;41758;51.992;5.890;2023-01-31T16:29:52;11.70;65.90
55828;DHT22;41758;51.992;5.890;2023-01-31T16:32:30;11.70;66.10
55828;DHT22;41758;51.992;5.890;2023-01-31T16:43:39;11.80;65.70
55828;DHT22;41758;51.992;5.890;2023-01-31T16:50:43;11.60;65.90
55828;DHT22;41758;51.992;5.890;2023-01-31T16:53:19;11.50;65.20
55828;DHT22;41758;51.992;5.890;2023-01-31T16:56:44;11.60;66.00
55828;DHT22;41758;51.992;5.890;2023-01-31T17:04:57;11.50;64.90
55828;DHT22;41758;51.992;5.890;2023-01-31T17:11:35;11.60;65.40
55828;DHT22;41758;51.992;5.890;2023-01-31T17:15:18;11.60;65.60
55828;DHT22;41758;51.992;5.890;2023-01-31T17:17:50;11.50;65.30
55828;DHT22;41758;51.992;5.890;2023-01-31T17:23:55;11.50;65.60
55828;DHT22;41758;51.992;5.890;2023-01-31T17:26:25;11.40;64.90
55828;DHT22;41758;51.992;5.890;2023-01-31T17:28:51;11.40;64.90
55828;DHT22;41758;51.992;5.890;2023-01-31T17:31:23;11.40;64.60
55828;DHT22;41758;51.992;5.890;2023-01-31T17:33:50;11.40;65.00
55828;DHT22;41758;51.992;5.890;2023-01-31T17:36:19;11.30;64.80
55828;DHT22;41758;51.992;5.890;2023-01-31T17:38:45;11.30;64.10
55828;DHT22;41758;51.992;5.890;2023-01-31T17:41:19;11.30;64.50
55828;DHT22;41758;51.992;5.890;2023-01-31T17:43:46;11.30;64.70
55828;DHT22;41758;51.992;5.890;2023-01-31T17:46:16;11.30;64.00
55828;DHT22;41758;51.992;5.890;2023-01-31T17:48:43;11.20;63.90
55828;DHT22;41758;51.992;5.890;2023-01-31T17:51:12;11.10;63.00
55828;DHT22;41758;51.992;5.890;2023-01-31T17:53:38;11.10;63.70
55828;DHT22;41758;51.992;5.890;2023-01-31T17:56:05;11.10;63.60
55828;DHT22;41758;51.992;5.890;2023-01-31T17:58:40;11.00;63.70
55828;DHT22;41758;51.992;5.890;2023-01-31T18:01:11;11.10;63.40
55828;DHT22;41758;51.992;5.890;2023-01-31T18:03:57;11.00;63.20
55828;DHT22;41758;51.992;5.890;2023-01-31T18:06:55;10.90;62.60
55828;DHT22;41758;51.992;5.890;2023-01-31T18:09:21;10.90;63.20
55828;DHT22;41758;51.992;5.890;2023-01-31T18:11:50;10.90;62.10
55828;DHT22;41758;51.992;5.890;2023-01-31T18:14:16;10.90;62.50
55828;DHT22;41758;51.992;5.890;2023-01-31T18:16:57;10.90;62.80
55828;DHT22;41758;51.992;5.890;2023-01-31T18:19:23;10.80;62.60
55828;DHT22;41758;51.992;5.890;2023-01-31T18:22:16;10.80;62.20
55828;DHT22;41758;51.992;5.890;2023-01-31T18:25:10;10.80;62.50
55828;DHT22;41758;51.992;5.890;2023-01-31T18:27:36;10.70;62.90
55828;DHT22;41758;51.992;5.890;2023-01-31T18:30:03;10.70;62.80
55828;DHT22;41758;51.992;5.890;2023-01-31T18:32:33;10.70;63.30
55828;DHT22;41758;51.992;5.890;2023-01-31T18:35:00;10.70;63.40
55828;DHT22;41758;51.992;5.890;2023-01-31T18:37:26;10.70;63.30
55828;DHT22;41758;51.992;5.890;2023-01-31T18:39:52;10.60;63.30
55828;DHT22;41758;51.992;5.890;2023-01-31T18:42:23;10.60;62.80
55828;DHT22;41758;51.992;5.890;2023-01-31T18:44:49;10.60;62.80
55828;DHT22;41758;51.992;5.890;2023-01-31T18:47:15;10.60;62.90
55828;DHT22;41758;51.992;5.890;2023-01-31T18:49:41;10.60;62.80
55828;DHT22;41758;51.992;5.890;2023-01-31T18:52:07;10.50;63.20
55828;DHT22;41758;51.992;5.890;2023-01-31T18:54:34;10.60;62.60
55828;DHT22;41758;51.992;5.890;2023-01-31T18:57:02;10.50;63.20
55828;DHT22;41758;51.992;5.890;2023-01-31T18:59:27;10.50;63.30
55828;DHT22;41758;51.992;5.890;2023-01-31T19:01:53;10.50;63.50
55828;DHT22;41758;51.992;5.890;2023-01-31T19:04:19;10.50;63.20
55828;DHT22;41758;51.992;5.890;2023-01-31T19:06:45;10.50;63.40
55828;DHT22;41758;51.992;5.890;2023-01-31T19:09:12;10.50;63.50
55828;DHT22;41758;51.992;5.890;2023-01-31T19:11:38;10.50;63.20
55828;DHT22;41758;51.992;5.890;2023-01-31T19:14:06;10.50;63.90
55828;DHT22;41758;51.992;5.890;2023-01-31T19:16:35;10.40;63.50
55828;DHT22;41758;51.992;5.890;2023-01-31T19:19:01;10.40;63.80
55828;DHT22;41758;51.992;5.890;2023-01-31T19:21:31;10.40;63.60
55828;DHT22;41758;51.992;5.890;2023-01-31T19:24:00;10.40;63.20
55828;DHT22;41758;51.992;5.890;2023-01-31T19:26:27;10.40;63.30
55828;DHT22;41758;51.992;5.890;2023-01-31T19:28:52;10.40;62.90
55828;DHT22;41758;51.992;5.890;2023-01-31T19:31:23;10.30;63.40
55828;DHT22;41758;51.992;5.890;2023-01-31T19:33:54;10.30;63.20
55828;DHT22;41758;51.992;5.890;2023-01-31T19:36:24;10.30;63.10
55828;DHT22;41758;51.992;5.890;2023-01-31T19:38:50;10.30;63.90
55828;DHT22;41758;51.992;5.890;2023-01-31T19:41:19;10.30;63.90
55828;DHT22;41758;51.992;5.890;2023-01-31T19:44:11;10.30;63.60
55828;DHT22;41758;51.992;5.890;2023-01-31T19:46:40;10.30;63.60
55828;DHT22;41758;51.992;5.890;2023-01-31T19:49:07;10.30;64.10
55828;DHT22;41758;51.992;5.890;2023-01-31T19:51:33;10.20;64.10
55828;DHT22;41758;51.992;5.890;2023-01-31T19:54:01;10.30;64.00
55828;DHT22;41758;51.992;5.890;2023-01-31T19:56:31;10.30;64.00
55828;DHT22;41758;51.992;5.890;2023-01-31T19:58:57;10.30;64.10
55828;DHT22;41758;51.992;5.890;2023-01-31T20:01:23;10.30;63.70
55828;DHT22;41758;51.992;5.890;2023-01-31T20:03:52;10.30;63.90
55828;DHT22;41758;51.992;5.890;2023-01-31T20:06:21;10.20;64.00
55828;DHT22;41758;51.992;5.890;2023-01-31T20:08:52;10.20;64.10
55828;DHT22;41758;51.992;5.890;2023-01-31T20:11:21;10.20;63.70
55828;DHT22;41758;51.992;5.890;2023-01-31T20:13:51;10.20;64.00
55828;DHT22;41758;51.992;5.890;2023-01-31T20:16:18;10.20;63.90
55828;DHT22;41758;51.992;5.890;2023-01-31T20:18:44;10.20;64.10
55828;DHT22;41758;51.992;5.890;2023-01-31T20:21:15;10.20;63.90
55828;DHT22;41758;51.992;5.890;2023-01-31T20:23:50;10.20;64.00
55828;DHT22;41758;51.992;5.890;2023-01-31T20:26:52;10.20;63.80
55828;DHT22;41758;51.992;5.890;2023-01-31T20:29:36;10.20;64.00
55828;DHT22;41758;51.992;5.890;2023-01-31T20:32:22;10.10;63.70
55828;DHT22;41758;51.992;5.890;2023-01-31T20:39:23;10.10;63.50
55828;DHT22;41758;51.992;5.890;2023-01-31T20:46:38;9.90;63.20
55828;DHT22;41758;51.992;5.890;2023-01-31T20:49:04;9.90;63.10
55828;DHT22;41758;51.992;5.890;2023-01-31T20:51:30;9.90;63.60
55828;DHT22;41758;51.992;5.890;2023-01-31T20:54:16;9.90;63.30
55828;DHT22;41758;51.992;5.890;2023-01-31T20:57:26;9.90;63.40
55828;DHT22;41758;51.992;5.890;2023-01-31T21:00:59;9.90;63.50
55828;DHT22;41758;51.992;5.890;2023-01-31T21:03:37;9.80;63.30
55828;DHT22;41758;51.992;5.890;2023-01-31T21:07:14;9.80;63.00
55828;DHT22;41758;51.992;5.890;2023-01-31T21:25:49;9.60;63.20
55828;DHT22;41758;51.992;5.890;2023-01-31T21:28:15;9.60;63.30
55828;DHT22;41758;51.992;5.890;2023-01-31T21:30:43;9.60;62.80
55828;DHT22;41758;51.992;5.890;2023-01-31T21:33:13;9.50;62.90
55828;DHT22;41758;51.992;5.890;2023-01-31T21:35:42;9.50;62.80
55828;DHT22;41758;51.992;5.890;2023-01-31T21:38:09;9.50;62.90
55828;DHT22;41758;51.992;5.890;2023-01-31T21:40:35;9.50;63.30